Time;durP1;ratioP1;P1;durP2;ratioP2;P2;SDS_P1;SDS_P2;PMS_P1;PMS_P2;Temp;Humidity;BMP_temperature;BMP_pressure;BME280_temperature;BME280_humidity;BME280_pressure;Samples;Min_cycle;Max_cycle;Signal;HPM_P1;HPM_P2
2024/03/11 05:30:38;;;;;;;0.10;0.10;;;5.70;87.40;;;;;;5705663;23;20533;-75
2024/03/11 05:33:04;;;;;;;0.10;0.10;;;5.60;87.10;;;;;;4860411;29;20371;-75
2024/03/11 05:35:30;;;;;;;0.10;0.10;;;5.60;87.50;;;;;;4862121;29;20037;-76
2024/03/11 05:37:56;;;;;;;0.10;0.10;;;5.60;87.60;;;;;;4863597;29;20082;-75
2024/03/11 05:40:22;;;;;;;0.13;0.13;;;5.60;87.10;;;;;;4863450;29;20029;-75
2024/03/11 05:42:48;;;;;;;0.10;0.10;;;5.60;87.00;;;;;;4845967;29;20062;-76
2024/03/11 05:45:14;;;;;;;0.10;0.10;;;5.60;87.00;;;;;;4863430;29;20037;-75
2024/03/11 05:47:45;;;;;;;0.20;0.20;;;5.60;87.00;;;;;;4863798;29;20414;-74
2024/03/11 05:50:12;;;;;;;0.10;0.10;;;5.50;86.80;;;;;;4851988;29;20030;-74
2024/03/11 05:52:38;;;;;;;0.13;0.13;;;5.40;86.50;;;;;;4845024;29;20026;-76
2024/03/11 05:55:11;;;;;;;0.10;0.10;;;5.40;86.70;;;;;;4845460;29;20025;-76
2024/03/11 05:57:38;;;;;;;0.10;0.10;;;5.30;86.40;;;;;;4844932;29;20676;-76
2024/03/11 06:00:09;;;;;;;0.10;0.10;;;5.30;86.40;;;;;;4844961;29;20047;-75
2024/03/11 06:02:36;;;;;;;0.10;0.10;;;5.20;86.30;;;;;;4861248;29;20060;-75
2024/03/11 06:05:02;;;;;;;0.10;0.10;;;5.20;86.40;;;;;;4843067;29;20066;-76
2024/03/11 06:07:28;;;;;;;0.10;0.10;;;5.20;86.60;;;;;;4844149;29;20061;-75
2024/03/11 06:09:54;;;;;;;0.10;0.10;;;5.20;86.40;;;;;;4846830;29;20025;-75
2024/03/11 06:12:20;;;;;;;0.10;0.10;;;5.20;86.20;;;;;;4857202;29;20033;-75
2024/03/11 06:14:47;;;;;;;0.10;0.10;;;5.20;86.20;;;;;;4862334;29;20034;-76
2024/03/11 06:17:13;;;;;;;0.20;0.20;;;5.10;86.10;;;;;;4863228;29;20069;-77
2024/03/11 06:19:39;;;;;;;0.10;0.10;;;5.10;86.10;;;;;;4843190;29;20490;-77
2024/03/11 06:22:05;;;;;;;0.20;0.20;;;5.10;86.10;;;;;;4845164;29;20034;-77
2024/03/11 06:24:32;;;;;;;0.10;0.10;;;5.00;86.00;;;;;;4846191;29;20132;-78
2024/03/11 06:26:58;;;;;;;0.20;0.20;;;5.00;86.10;;;;;;4863298;29;20056;-78
2024/03/11 06:29:26;;;;;;;0.20;0.20;;;5.00;86.10;;;;;;4842631;29;20030;-78
2024/03/11 06:31:53;;;;;;;0.10;0.10;;;5.00;85.90;;;;;;4844929;29;20053;-78
2024/03/11 06:34:21;;;;;;;0.10;0.10;;;5.00;86.30;;;;;;4845179;29;20036;-79
2024/03/11 06:36:48;;;;;;;0.10;0.10;;;5.00;86.50;;;;;;4861675;29;20030;-77
2024/03/11 06:39:15;;;;;;;0.17;0.17;;;5.00;86.60;;;;;;4845959;29;20034;-77
2024/03/11 06:41:41;;;;;;;0.13;0.13;;;5.00;86.20;;;;;;4845348;29;20403;-76
2024/03/11 06:44:17;;;;;;;0.10;0.10;;;5.00;86.20;;;;;;4846634;29;20032;-79
2024/03/11 06:46:43;;;;;;;0.10;0.10;;;5.00;86.20;;;;;;4839018;29;20645;-75
2024/03/11 06:49:08;;;;;;;0.10;0.10;;;5.00;86.40;;;;;;4859226;29;20036;-75
2024/03/11 06:51:35;;;;;;;0.20;0.20;;;5.00;86.30;;;;;;4863900;29;20475;-75
2024/03/11 06:54:01;;;;;;;0.10;0.10;;;5.10;86.10;;;;;;4861411;29;20053;-75
2024/03/11 06:56:30;;;;;;;0.10;0.10;;;5.10;86.40;;;;;;4863322;29;20036;-75
2024/03/11 06:58:58;;;;;;;0.10;0.10;;;5.10;86.40;;;;;;4863271;29;20033;-75
2024/03/11 07:01:27;;;;;;;0.10;0.10;;;5.20;86.40;;;;;;4843973;29;20173;-74
2024/03/11 07:03:53;;;;;;;0.10;0.10;;;5.20;86.10;;;;;;4855710;29;20034;-75
2024/03/11 07:06:19;;;;;;;0.10;0.10;;;5.20;85.80;;;;;;4859127;29;20040;-75
2024/03/11 07:08:46;;;;;;;0.13;0.13;;;5.20;86.00;;;;;;4846096;29;20029;-75
2024/03/11 07:11:14;;;;;;;0.20;0.20;;;5.30;86.20;;;;;;4859087;29;20052;-75
2024/03/11 07:13:40;;;;;;;0.10;0.10;;;5.40;85.90;;;;;;4862403;29;20408;-76
2024/03/11 07:16:18;;;;;;;0.20;0.20;;;5.60;85.70;;;;;;4862684;29;20565;-85
2024/03/11 07:18:49;;;;;;;0.20;0.20;;;6.20;85.30;;;;;;4855132;29;20026;-82
2024/03/11 07:21:16;;;;;;;0.20;0.20;;;7.30;82.50;;;;;;4843618;29;20037;-77
2024/03/11 07:23:42;;;;;;;0.20;0.20;;;8.20;80.90;;;;;;4845791;29;20094;-77
2024/03/11 07:26:07;;;;;;;0.20;0.20;;;8.60;79.60;;;;;;4862624;29;20060;-77
2024/03/11 07:28:34;;;;;;;0.30;0.30;;;9.50;78.40;;;;;;4861798;29;20028;-77
2024/03/11 07:31:00;;;;;;;0.40;0.40;;;10.30;76.70;;;;;;4846178;29;20050;-77
2024/03/11 07:33:26;;;;;;;0.40;0.40;;;11.90;73.50;;;;;;4828189;29;20030;-77
2024/03/11 07:35:53;;;;;;;0.40;0.40;;;13.40;69.20;;;;;;4856680;29;20076;-78
2024/03/11 07:38:19;;;;;;;0.10;0.10;;;14.30;66.40;;;;;;4848459;29;20121;-78
2024/03/11 07:40:45;;;;;;;0.10;0.10;;;14.10;64.80;;;;;;4862841;29;20053;-77
2024/03/11 07:43:11;;;;;;;0.10;0.10;;;13.20;65.00;;;;;;4862724;29;20034;-77
2024/03/11 07:45:38;;;;;;;0.30;0.30;;;12.20;67.40;;;;;;4860275;29;20044;-77
2024/03/11 07:48:05;;;;;;;0.20;0.20;;;12.20;68.70;;;;;;4844213;29;20033;-77
2024/03/11 07:50:32;;;;;;;0.20;0.20;;;12.10;68.40;;;;;;4844592;29;20392;-77
2024/03/11 07:52:58;;;;;;;0.20;0.20;;;11.50;69.80;;;;;;4845984;29;20061;-77
2024/03/11 07:55:24;;;;;;;0.20;0.20;;;11.20;70.90;;;;;;4846217;29;20029;-77
2024/03/11 07:57:53;;;;;;;0.30;0.30;;;11.20;70.90;;;;;;4831103;29;20431;-77
2024/03/11 08:00:21;;;;;;;0.30;0.30;;;11.30;71.10;;;;;;4847362;29;20498;-77
2024/03/11 08:02:47;;;;;;;0.20;0.20;;;11.80;70.70;;;;;;4847353;29;20065;-77
2024/03/11 08:05:13;;;;;;;0.30;0.30;;;12.40;69.10;;;;;;4854329;29;20040;-77
2024/03/11 08:07:47;;;;;;;0.40;0.40;;;12.80;68.80;;;;;;4865734;29;20033;-77
2024/03/11 08:10:13;;;;;;;0.45;0.45;;;13.10;68.00;;;;;;4860124;29;20549;-78
2024/03/11 08:12:43;;;;;;;0.20;0.20;;;14.00;66.60;;;;;;4847168;29;20022;-78
2024/03/11 08:15:14;;;;;;;0.20;0.20;;;14.00;66.00;;;;;;4830501;29;20030;-77
2024/03/11 08:17:42;;;;;;;0.20;0.20;;;13.50;66.80;;;;;;4847436;29;20041;-78
2024/03/11 08:20:16;;;;;;;0.20;0.20;;;12.70;68.50;;;;;;4847394;29;20505;-78
2024/03/11 08:22:45;;;;;;;0.20;0.20;;;12.10;70.10;;;;;;4847219;29;20037;-78
2024/03/11 08:25:11;;;;;;;0.20;0.20;;;12.00;71.50;;;;;;4846582;29;20486;-79
2024/03/11 08:27:38;;;;;;;0.13;0.13;;;11.70;72.20;;;;;;4846792;29;20372;-78
2024/03/11 08:30:07;;;;;;;0.20;0.20;;;11.30;73.30;;;;;;4847152;29;20617;-78
2024/03/11 08:32:33;;;;;;;0.17;0.17;;;11.20;73.90;;;;;;4810554;29;20054;-78
2024/03/11 08:34:59;;;;;;;0.10;0.10;;;10.90;74.70;;;;;;4815474;29;20042;-78
2024/03/11 08:37:25;;;;;;;0.10;0.10;;;10.80;75.60;;;;;;4811002;29;20412;-78
2024/03/11 08:39:51;;;;;;;0.20;0.20;;;10.70;75.90;;;;;;4833408;29;20042;-78
2024/03/11 08:42:18;;;;;;;0.13;0.13;;;10.60;76.60;;;;;;4817141;29;20031;-78
2024/03/11 08:44:45;;;;;;;0.28;0.28;;;10.60;76.70;;;;;;4810228;29;20492;-78
2024/03/11 08:47:13;;;;;;;0.47;0.47;;;11.00;76.80;;;;;;4810204;29;20084;-78
2024/03/11 08:49:39;;;;;;;0.20;0.20;;;11.80;75.30;;;;;;4810116;29;20058;-78
2024/03/11 08:52:07;;;;;;;0.30;0.30;;;11.90;74.70;;;;;;4810345;29;20027;-78
2024/03/11 08:54:35;;;;;;;0.30;0.30;;;12.20;74.90;;;;;;4821403;29;20034;-78
2024/03/11 08:57:03;;;;;;;0.60;0.60;;;12.50;74.60;;;;;;4824952;29;20091;-78
2024/03/11 08:59:30;;;;;;;0.80;0.80;;;13.00;73.90;;;;;;4819218;29;20038;-79
2024/03/11 09:01:57;;;;;;;0.30;0.30;;;14.20;72.30;;;;;;4823100;29;20039;-79
2024/03/11 09:04:29;;;;;;;0.50;0.50;;;14.90;69.50;;;;;;4810153;29;20027;-79
2024/03/11 09:06:57;;;;;;;0.30;0.30;;;15.00;68.10;;;;;;4827902;29;20030;-78
2024/03/11 09:09:26;;;;;;;1.10;1.10;;;15.20;68.30;;;;;;4818004;29;20026;-79
2024/03/11 09:11:56;;;;;;;0.80;0.80;;;15.20;68.70;;;;;;4808524;29;20037;-79
2024/03/11 09:14:26;;;;;;;0.63;0.63;;;15.80;67.90;;;;;;4809934;29;20172;-79
2024/03/11 09:16:55;;;;;;;0.60;0.60;;;16.10;66.60;;;;;;4809711;29;20408;-79
2024/03/11 09:19:23;;;;;;;0.40;0.40;;;15.90;66.40;;;;;;4809920;29;20038;-78
2024/03/11 09:21:50;;;;;;;0.50;0.50;;;15.50;66.80;;;;;;4809684;29;20031;-79
2024/03/11 09:24:17;;;;;;;0.32;0.32;;;15.40;67.40;;;;;;4822566;29;20067;-79
2024/03/11 09:26:49;;;;;;;0.60;0.60;;;15.50;68.10;;;;;;4809490;29;20034;-79
2024/03/11 09:29:16;;;;;;;0.60;0.60;;;15.70;66.40;;;;;;4809415;29;20050;-78
2024/03/11 09:31:42;;;;;;;0.30;0.30;;;15.80;67.80;;;;;;4835394;29;20060;-79
2024/03/11 09:34:08;;;;;;;1.02;1.02;;;16.00;66.30;;;;;;4845964;29;20038;-79
2024/03/11 09:36:36;;;;;;;0.60;0.60;;;16.30;66.30;;;;;;4838098;29;20038;-78
2024/03/11 09:39:05;;;;;;;0.40;0.40;;;16.50;65.80;;;;;;4833050;29;20033;-79
2024/03/11 09:41:39;;;;;;;1.00;1.00;;;16.90;65.00;;;;;;4845840;29;20576;-79
2024/03/11 09:44:05;;;;;;;0.30;0.30;;;17.30;64.30;;;;;;4837486;29;20046;-79
2024/03/11 09:46:31;;;;;;;2.00;1.90;;;17.80;63.70;;;;;;4827679;29;20034;-79
2024/03/11 09:48:57;;;;;;;2.20;2.10;;;18.50;61.90;;;;;;4826094;29;20038;-79
2024/03/11 09:51:23;;;;;;;2.30;2.20;;;19.30;60.60;;;;;;4827593;29;20031;-79
2024/03/11 09:53:54;;;;;;;2.15;2.05;;;19.90;58.30;;;;;;4827646;29;20082;-79
2024/03/11 09:56:21;;;;;;;1.98;1.88;;;20.20;56.00;;;;;;4826397;29;20038;-79
2024/03/11 09:58:58;;;;;;;2.50;2.30;;;20.30;55.70;;;;;;4827114;29;20035;-79
2024/03/11 10:01:30;;;;;;;0.55;0.55;;;20.40;56.80;;;;;;4826176;29;20457;-79
2024/03/11 10:04:00;;;;;;;1.33;1.23;;;19.80;57.10;;;;;;4827547;29;20109;-79
2024/03/11 10:06:30;;;;;;;0.10;0.10;;;19.50;59.00;;;;;;4844213;29;20414;-79
2024/03/11 10:08:56;;;;;;;0.00;0.00;;;18.80;60.50;;;;;;4845430;29;20033;-79
2024/03/11 10:11:24;;;;;;;1.13;1.13;;;17.50;61.10;;;;;;4845251;29;20054;-79
2024/03/11 10:13:56;;;;;;;1.02;1.02;;;16.90;62.50;;;;;;4826969;29;20113;-79
2024/03/11 10:16:26;;;;;;;0.00;0.00;;;17.20;63.10;;;;;;4826437;29;20065;-79
2024/03/11 10:19:22;;;;;;;0.22;0.22;;;16.50;63.30;;;;;;4840063;29;20555;-79
2024/03/11 10:21:48;;;;;;;0.20;0.20;;;15.70;66.00;;;;;;4827019;29;20038;-79
2024/03/11 10:24:18;;;;;;;0.20;0.20;;;15.70;67.00;;;;;;4826910;29;20109;-79
2024/03/11 10:26:45;;;;;;;0.10;0.10;;;15.60;68.20;;;;;;4826805;29;20050;-79
2024/03/11 10:29:12;;;;;;;0.10;0.10;;;15.70;68.80;;;;;;4825852;29;20033;-79
2024/03/11 10:31:42;;;;;;;0.10;0.10;;;15.60;68.20;;;;;;4840834;29;20057;-79
2024/03/11 10:34:21;;;;;;;0.10;0.10;;;15.30;67.70;;;;;;4827390;29;20089;-79
2024/03/11 10:36:55;;;;;;;0.10;0.10;;;15.10;69.40;;;;;;4825825;29;20102;-79
2024/03/11 10:41:49;;;;;;;0.10;0.10;;;14.70;69.00;;;;;;4837197;29;20049;-79
2024/03/11 10:44:17;;;;;;;0.10;0.10;;;14.60;69.50;;;;;;4826754;29;20090;-79
2024/03/11 10:46:43;;;;;;;0.10;0.10;;;14.50;71.40;;;;;;4826722;29;20030;-80
2024/03/11 10:49:12;;;;;;;0.10;0.10;;;14.60;71.30;;;;;;4831290;29;20066;-79
2024/03/11 10:51:45;;;;;;;0.10;0.10;;;14.70;70.80;;;;;;4844828;29;20399;-80
2024/03/11 10:54:28;;;;;;;0.13;0.13;;;14.50;68.50;;;;;;4839432;29;20125;-80
2024/03/11 10:56:55;;;;;;;0.10;0.10;;;14.60;68.90;;;;;;4826647;29;20062;-80
2024/03/11 10:59:29;;;;;;;0.10;0.10;;;14.70;68.60;;;;;;4826365;29;20102;-80
2024/03/11 11:01:57;;;;;;;0.10;0.10;;;15.00;68.90;;;;;;4826314;29;20049;-79
2024/03/11 11:04:28;;;;;;;0.10;0.10;;;15.00;67.40;;;;;;4829399;29;20082;-80
2024/03/11 11:06:58;;;;;;;0.10;0.10;;;14.70;67.30;;;;;;4828997;29;20034;-80
2024/03/11 11:09:30;;;;;;;0.10;0.10;;;14.70;68.30;;;;;;4843685;29;20081;-80
2024/03/11 11:11:56;;;;;;;0.10;0.10;;;14.80;68.40;;;;;;4843385;29;20041;-80
2024/03/11 11:14:27;;;;;;;0.10;0.10;;;14.90;67.90;;;;;;4844852;29;20062;-80
2024/03/11 11:16:55;;;;;;;0.10;0.10;;;15.20;68.40;;;;;;4835398;29;20495;-80
2024/03/11 11:19:28;;;;;;;0.10;0.10;;;15.20;66.90;;;;;;4844794;29;20026;-80
2024/03/11 11:21:54;;;;;;;0.10;0.10;;;15.00;65.40;;;;;;4844832;29;20034;-80
2024/03/11 11:24:31;;;;;;;0.15;0.15;;;15.20;66.30;;;;;;4835000;29;20489;-80
2024/03/11 11:27:06;;;;;;;0.10;0.10;;;15.50;66.50;;;;;;4828076;29;20087;-80
2024/03/11 11:29:32;;;;;;;0.10;0.10;;;15.40;65.60;;;;;;4829741;29;20026;-80
2024/03/11 11:32:11;;;;;;;0.10;0.10;;;15.20;65.40;;;;;;4843225;29;20057;-80
2024/03/11 11:34:46;;;;;;;0.10;0.10;;;15.10;66.00;;;;;;4850693;29;20545;-80
2024/03/11 11:37:22;;;;;;;0.10;0.10;;;15.20;65.00;;;;;;4866398;29;20062;-80
2024/03/11 11:39:50;;;;;;;0.10;0.10;;;15.30;65.10;;;;;;4862880;29;20033;-80
2024/03/11 11:42:39;;;;;;;0.10;0.10;;;15.20;62.70;;;;;;4849716;29;20254;-80
2024/03/11 11:45:14;;;;;;;0.10;0.10;;;15.00;63.70;;;;;;4846328;29;20037;-80
2024/03/11 11:47:40;;;;;;;0.10;0.10;;;14.70;64.30;;;;;;4847795;29;20551;-79
2024/03/11 11:50:30;;;;;;;0.10;0.10;;;14.70;65.30;;;;;;4847338;29;20037;-79
2024/03/11 11:53:03;;;;;;;0.10;0.10;;;14.90;65.60;;;;;;4847724;29;20079;-80
2024/03/11 11:55:29;;;;;;;0.10;0.10;;;15.20;64.40;;;;;;4830838;29;20120;-80
2024/03/11 11:58:07;;;;;;;0.20;0.20;;;15.70;63.50;;;;;;4847511;29;20543;-80
2024/03/11 12:00:35;;;;;;;0.10;0.10;;;16.00;63.20;;;;;;4847382;29;20394;-80
2024/03/11 12:03:04;;;;;;;0.10;0.10;;;16.10;63.50;;;;;;4847412;29;20038;-80
2024/03/11 12:05:31;;;;;;;0.10;0.10;;;16.20;62.10;;;;;;4840042;29;20078;-80
2024/03/11 12:07:56;;;;;;;0.10;0.10;;;16.30;60.50;;;;;;4865910;29;20029;-80
2024/03/11 12:10:23;;;;;;;0.10;0.10;;;16.40;60.50;;;;;;4865796;29;20030;-80
2024/03/11 12:12:49;;;;;;;0.10;0.10;;;16.40;61.30;;;;;;4864401;29;20025;-80
2024/03/11 12:15:21;;;;;;;0.10;0.10;;;16.20;59.90;;;;;;4849060;29;20026;-80
2024/03/11 12:17:52;;;;;;;0.10;0.10;;;15.80;60.60;;;;;;4865619;29;20042;-81
2024/03/11 12:20:30;;;;;;;0.10;0.10;;;15.80;60.80;;;;;;4849336;29;20065;-80
2024/03/11 12:22:57;;;;;;;0.10;0.10;;;15.80;60.80;;;;;;4850848;29;20070;-80
2024/03/11 12:25:24;;;;;;;0.15;0.15;;;16.00;59.40;;;;;;4847190;29;20113;-80
2024/03/11 12:28:07;;;;;;;0.10;0.10;;;16.00;59.00;;;;;;4847068;29;20038;-80
2024/03/11 12:30:37;;;;;;;0.10;0.10;;;15.90;60.50;;;;;;4846027;29;20052;-80
2024/03/11 12:33:07;;;;;;;0.10;0.10;;;16.00;60.60;;;;;;4830531;29;20057;-80
2024/03/11 12:35:36;;;;;;;0.10;0.10;;;16.10;61.80;;;;;;4856812;29;20095;-80
2024/03/11 12:38:03;;;;;;;0.10;0.10;;;16.20;61.80;;;;;;4850582;29;20093;-79
2024/03/11 12:40:30;;;;;;;0.10;0.10;;;16.20;60.50;;;;;;4848756;29;20120;-80
2024/03/11 12:42:56;;;;;;;0.10;0.10;;;16.30;62.00;;;;;;4865280;29;20501;-80
2024/03/11 12:45:41;;;;;;;0.10;0.10;;;16.20;61.30;;;;;;4845810;29;20037;-80
2024/03/11 12:48:14;;;;;;;0.10;0.10;;;16.20;61.90;;;;;;4847821;29;20029;-80
2024/03/11 12:50:44;;;;;;;0.10;0.10;;;16.30;60.70;;;;;;4850057;29;20033;-80
2024/03/11 12:53:14;;;;;;;0.10;0.10;;;16.50;60.20;;;;;;4845340;29;20074;-80
2024/03/11 12:55:43;;;;;;;0.10;0.10;;;16.70;60.00;;;;;;4830165;29;20491;-79
2024/03/11 12:58:18;;;;;;;0.10;0.10;;;16.80;59.00;;;;;;4846043;29;20041;-80
2024/03/11 13:01:04;;;;;;;0.10;0.10;;;16.80;58.60;;;;;;4846666;29;20037;-80
2024/03/11 13:03:31;;;;;;;0.10;0.10;;;16.30;58.80;;;;;;4852241;29;20070;-80
2024/03/11 13:06:03;;;;;;;0.10;0.10;;;16.30;60.30;;;;;;4848204;29;20033;-80
2024/03/11 13:08:33;;;;;;;0.10;0.10;;;16.40;60.10;;;;;;4864736;29;20509;-80
2024/03/11 13:11:09;;;;;;;0.10;0.10;;;16.70;59.90;;;;;;4849229;29;20065;-80
2024/03/11 13:13:36;;;;;;;0.10;0.10;;;16.60;59.10;;;;;;4829882;29;20038;-80
2024/03/11 13:16:09;;;;;;;0.10;0.10;;;16.60;59.40;;;;;;4829515;29;20053;-80
2024/03/11 13:18:38;;;;;;;0.10;0.10;;;16.60;59.00;;;;;;4845957;29;20081;-80
2024/03/11 13:21:07;;;;;;;0.10;0.10;;;16.60;58.80;;;;;;4845880;29;20030;-80
2024/03/11 13:23:37;;;;;;;0.10;0.10;;;16.50;59.10;;;;;;4846182;29;20030;-80
2024/03/11 13:26:06;;;;;;;0.10;0.10;;;16.30;59.10;;;;;;4830348;29;20026;-81
2024/03/11 13:28:33;;;;;;;0.10;0.10;;;16.10;58.60;;;;;;4829704;29;20083;-80
2024/03/11 13:30:59;;;;;;;0.10;0.10;;;16.00;59.20;;;;;;4846126;29;20050;-81
2024/03/11 13:33:25;;;;;;;0.10;0.10;;;15.90;59.50;;;;;;4830123;29;20061;-81
2024/03/11 13:35:53;;;;;;;0.10;0.10;;;15.80;60.50;;;;;;4860251;29;20505;-81
2024/03/11 13:38:20;;;;;;;0.10;0.10;;;15.80;60.10;;;;;;4846970;29;20069;-81
2024/03/11 13:40:45;;;;;;;0.10;0.10;;;16.00;61.80;;;;;;4857882;29;20534;-81
2024/03/11 13:43:11;;;;;;;0.10;0.10;;;16.00;60.50;;;;;;4845211;29;20078;-81
2024/03/11 13:45:50;;;;;;;0.10;0.10;;;16.00;61.30;;;;;;4845265;29;20044;-81
2024/03/11 13:48:19;;;;;;;0.10;0.10;;;16.00;61.70;;;;;;4846066;29;20033;-80
2024/03/11 13:50:48;;;;;;;0.00;0.00;;;15.80;60.50;;;;;;4845737;29;20487;-80
2024/03/11 13:53:15;;;;;;;0.10;0.10;;;15.50;61.10;;;;;;4845152;29;20030;-79
2024/03/11 13:55:43;;;;;;;0.08;0.08;;;15.30;62.20;;;;;;4844440;29;20033;-80
2024/03/11 13:58:09;;;;;;;0.10;0.10;;;15.20;62.40;;;;;;4844193;29;20570;-79
2024/03/11 14:00:35;;;;;;;0.10;0.10;;;15.10;62.90;;;;;;4845308;29;20044;-79
2024/03/11 14:03:04;;;;;;;0.10;0.10;;;15.10;63.00;;;;;;4836568;29;20061;-79
2024/03/11 14:05:30;;;;;;;0.10;0.10;;;15.10;63.20;;;;;;4837992;29;20033;-80
2024/03/11 14:07:56;;;;;;;0.00;0.00;;;15.10;63.30;;;;;;4863828;29;20033;-80
2024/03/11 14:10:23;;;;;;;0.00;0.00;;;15.00;63.30;;;;;;4855424;29;20085;-79
2024/03/11 14:12:50;;;;;;;0.10;0.10;;;15.00;62.90;;;;;;4845070;29;20030;-80
2024/03/11 14:15:16;;;;;;;0.10;0.10;;;15.00;63.60;;;;;;4828879;29;20030;-80
2024/03/11 14:17:47;;;;;;;0.10;0.10;;;15.00;63.40;;;;;;4841353;29;20040;-79
2024/03/11 14:20:20;;;;;;;0.10;0.10;;;15.00;63.60;;;;;;4845041;29;20042;-79
2024/03/11 14:22:52;;;;;;;0.10;0.10;;;15.00;63.10;;;;;;4844162;29;20037;-80
2024/03/11 14:25:20;;;;;;;0.10;0.10;;;15.10;63.10;;;;;;4844711;29;20042;-80
2024/03/11 14:27:48;;;;;;;0.10;0.10;;;15.20;63.70;;;;;;4844833;29;20026;-79
2024/03/11 14:30:16;;;;;;;0.10;0.10;;;15.20;63.40;;;;;;4844921;29;20069;-80
2024/03/11 14:32:44;;;;;;;0.10;0.10;;;15.10;63.10;;;;;;4827974;29;20034;-79
2024/03/11 14:35:13;;;;;;;0.10;0.10;;;15.00;64.20;;;;;;4850838;29;20033;-79
2024/03/11 14:37:40;;;;;;;0.10;0.10;;;15.00;64.40;;;;;;4862936;29;20029;-78
2024/03/11 14:40:10;;;;;;;0.10;0.10;;;14.90;63.90;;;;;;4862516;29;20053;-78
2024/03/11 14:42:37;;;;;;;0.10;0.10;;;14.70;64.20;;;;;;4859075;29;20041;-78
2024/03/11 14:45:04;;;;;;;0.10;0.10;;;14.70;64.00;;;;;;4843168;29;20038;-78
2024/03/11 14:47:30;;;;;;;0.10;0.10;;;14.60;64.30;;;;;;4827956;29;20040;-78
2024/03/11 14:49:56;;;;;;;0.00;0.00;;;14.60;65.30;;;;;;4827971;29;20389;-78
2024/03/11 14:52:22;;;;;;;0.10;0.10;;;14.50;66.10;;;;;;4843946;29;20138;-78
2024/03/11 14:54:49;;;;;;;0.10;0.10;;;14.70;66.00;;;;;;4844194;29;20066;-79
2024/03/11 14:57:15;;;;;;;0.10;0.10;;;14.90;66.70;;;;;;4858768;29;20026;-79
2024/03/11 14:59:45;;;;;;;0.10;0.10;;;15.20;66.10;;;;;;4861131;29;20052;-79
2024/03/11 15:02:15;;;;;;;0.10;0.10;;;15.70;65.30;;;;;;4864237;29;20026;-79
2024/03/11 15:04:42;;;;;;;0.10;0.10;;;15.50;64.00;;;;;;4847871;29;20069;-79
2024/03/11 15:07:08;;;;;;;0.10;0.10;;;15.30;65.60;;;;;;4865893;29;20505;-79
2024/03/11 15:09:41;;;;;;;0.10;0.10;;;15.00;66.00;;;;;;4865368;29;20021;-79
2024/03/11 15:12:08;;;;;;;0.10;0.10;;;14.80;66.50;;;;;;4865630;29;20021;-79
2024/03/11 15:14:34;;;;;;;0.10;0.10;;;14.70;66.80;;;;;;4853321;29;20042;-79
2024/03/11 15:17:00;;;;;;;0.10;0.10;;;14.60;67.10;;;;;;4830705;29;20398;-79
2024/03/11 15:19:25;;;;;;;0.10;0.10;;;14.60;67.00;;;;;;4846897;29;20040;-79
2024/03/11 15:21:51;;;;;;;0.10;0.10;;;14.50;67.50;;;;;;4846923;29;20522;-79
2024/03/11 15:24:17;;;;;;;0.10;0.10;;;14.50;66.90;;;;;;4845718;29;20054;-80
2024/03/11 15:26:43;;;;;;;0.00;0.00;;;14.40;65.80;;;;;;4844447;29;20026;-79
2024/03/11 15:29:10;;;;;;;0.10;0.10;;;14.40;65.70;;;;;;4850938;29;20028;-79
2024/03/11 15:31:36;;;;;;;0.10;0.10;;;14.50;65.60;;;;;;4840755;29;249232;-79
2024/03/11 15:34:03;;;;;;;0.10;0.10;;;14.40;66.20;;;;;;4846508;29;20093;-78
2024/03/11 15:36:31;;;;;;;0.10;0.10;;;14.30;66.60;;;;;;4845019;29;20451;-81
2024/03/11 15:38:58;;;;;;;0.10;0.10;;;14.40;67.10;;;;;;4853819;29;20025;-78
2024/03/11 15:41:24;;;;;;;0.10;0.10;;;14.40;67.10;;;;;;4845643;29;20403;-78
2024/03/11 15:43:50;;;;;;;0.10;0.10;;;14.40;68.20;;;;;;4846521;29;20045;-78
2024/03/11 15:46:19;;;;;;;0.10;0.10;;;14.30;68.50;;;;;;4847639;29;20030;-78
2024/03/11 15:48:50;;;;;;;0.08;0.08;;;14.30;68.30;;;;;;4847645;29;20086;-79
2024/03/11 15:51:16;;;;;;;0.10;0.10;;;14.30;68.70;;;;;;4846856;29;20498;-79
2024/03/11 15:53:45;;;;;;;0.10;0.10;;;14.30;68.70;;;;;;4845504;29;20391;-78
2024/03/11 15:56:14;;;;;;;0.10;0.10;;;14.20;68.50;;;;;;4831469;29;20399;-78
2024/03/11 15:58:40;;;;;;;0.10;0.10;;;14.20;68.70;;;;;;4847357;29;20028;-79
2024/03/11 16:01:07;;;;;;;0.10;0.10;;;14.10;67.90;;;;;;4847707;29;20112;-78
2024/03/11 16:03:36;;;;;;;0.10;0.10;;;14.20;68.00;;;;;;4846987;29;20041;-78
2024/03/11 16:06:02;;;;;;;0.10;0.10;;;14.20;68.30;;;;;;4860751;29;20061;-79
2024/03/11 16:08:29;;;;;;;0.10;0.10;;;14.20;67.70;;;;;;4865459;29;20053;-78
2024/03/11 16:10:55;;;;;;;0.10;0.10;;;14.10;68.00;;;;;;4862326;29;20603;-79
2024/03/11 16:13:21;;;;;;;0.10;0.10;;;14.10;67.30;;;;;;4845336;29;20109;-78
2024/03/11 16:15:46;;;;;;;0.10;0.10;;;14.00;66.90;;;;;;4843486;29;20109;-78
2024/03/11 16:18:16;;;;;;;0.10;0.10;;;13.90;67.40;;;;;;4846438;29;20382;-78
2024/03/11 16:20:41;;;;;;;0.00;0.00;;;13.90;67.70;;;;;;4845619;29;20061;-77
2024/03/11 16:23:13;;;;;;;0.10;0.10;;;13.90;67.40;;;;;;4844986;29;20091;-77
2024/03/11 16:25:39;;;;;;;0.10;0.10;;;14.00;67.40;;;;;;4861215;29;20098;-77
2024/03/11 16:28:07;;;;;;;0.05;0.05;;;13.90;67.60;;;;;;4864287;29;20506;-79
2024/03/11 16:30:36;;;;;;;0.10;0.10;;;13.70;67.20;;;;;;4861874;29;20368;-79
2024/03/11 16:33:02;;;;;;;0.10;0.10;;;13.70;67.90;;;;;;4864844;29;20029;-78
2024/03/11 16:35:34;;;;;;;0.10;0.10;;;13.60;68.30;;;;;;4846840;29;20041;-78
2024/03/11 16:38:06;;;;;;;0.00;0.00;;;13.60;68.40;;;;;;4864762;29;20077;-79
2024/03/11 16:40:34;;;;;;;0.10;0.10;;;13.50;68.80;;;;;;4845466;29;20051;-79
2024/03/11 16:43:04;;;;;;;0.00;0.00;;;13.50;69.30;;;;;;4864215;29;20038;-75
2024/03/11 16:45:36;;;;;;;0.10;0.10;;;13.50;69.20;;;;;;4857337;29;20034;-76
2024/03/11 16:48:03;;;;;;;0.10;0.10;;;13.40;69.50;;;;;;4857701;29;20026;-76
2024/03/11 16:50:29;;;;;;;0.10;0.10;;;13.50;69.90;;;;;;4863809;29;20375;-76
2024/03/11 16:52:56;;;;;;;0.10;0.10;;;13.40;69.60;;;;;;4858399;29;20021;-75
2024/03/11 16:55:25;;;;;;;0.10;0.10;;;13.40;69.10;;;;;;4856115;29;20418;-75
2024/03/11 16:57:51;;;;;;;0.10;0.10;;;13.30;69.50;;;;;;4861334;29;20513;-75
2024/03/11 17:00:21;;;;;;;0.10;0.10;;;13.30;69.70;;;;;;4845946;29;20034;-75
2024/03/11 17:02:54;;;;;;;0.10;0.10;;;13.20;70.30;;;;;;4858216;29;20085;-75
2024/03/11 17:05:23;;;;;;;;;;;13.10;70.40;;;;;;4864259;29;20124;-75
2024/03/11 17:07:53;;;;;;;0.10;0.10;;;13.20;70.60;;;;;;4847728;29;19937;-75
2024/03/11 17:10:23;;;;;;;0.10;0.10;;;13.20;71.00;;;;;;4845486;29;20052;-75
2024/03/11 17:12:49;;;;;;;0.00;0.00;;;13.20;70.80;;;;;;4845932;29;20026;-75
2024/03/11 17:15:20;;;;;;;0.10;0.10;;;13.10;70.90;;;;;;4845591;29;20046;-75
2024/03/11 17:17:50;;;;;;;0.00;0.00;;;13.10;71.00;;;;;;4845140;29;20065;-75
2024/03/11 17:20:20;;;;;;;0.10;0.10;;;13.10;71.30;;;;;;4845209;29;20026;-75
2024/03/11 17:22:53;;;;;;;0.10;0.10;;;13.00;71.10;;;;;;4857646;29;20072;-75
2024/03/11 17:25:24;;;;;;;;;;;12.90;71.80;;;;;;4861161;29;20466;-74
2024/03/11 17:27:57;;;;;;;0.10;0.10;;;12.80;71.60;;;;;;4829345;29;20349;-74
2024/03/11 17:30:25;;;;;;;0.10;0.10;;;12.80;71.60;;;;;;4860480;29;20120;-75
2024/03/11 17:32:57;;;;;;;0.10;0.10;;;12.80;71.80;;;;;;4845853;29;20037;-75
2024/03/11 17:35:29;;;;;;;0.10;0.10;;;12.70;72.20;;;;;;4846952;29;20033;-75
2024/03/11 17:37:55;;;;;;;0.00;0.00;;;12.60;72.10;;;;;;4846546;29;20504;-75
2024/03/11 17:40:22;;;;;;;0.10;0.10;;;12.40;72.50;;;;;;4862162;29;20133;-75
2024/03/11 17:42:48;;;;;;;0.10;0.10;;;12.40;72.70;;;;;;4854081;29;20062;-75
2024/03/11 17:45:16;;;;;;;0.10;0.10;;;12.40;73.00;;;;;;4841636;29;20514;-75
2024/03/11 17:47:46;;;;;;;0.10;0.10;;;12.50;73.10;;;;;;4840455;29;20072;-75
2024/03/11 17:50:19;;;;;;;0.10;0.10;;;12.30;73.10;;;;;;4842811;29;20034;-75
2024/03/11 17:52:48;;;;;;;0.10;0.10;;;12.30;73.40;;;;;;4857592;29;20025;-75
2024/03/11 17:55:26;;;;;;;0.10;0.10;;;12.30;73.80;;;;;;4846229;29;20048;-75
2024/03/11 17:57:54;;;;;;;0.10;0.10;;;12.20;73.70;;;;;;4846655;29;20517;-74
2024/03/11 18:00:28;;;;;;;0.10;0.10;;;12.30;73.60;;;;;;4849341;29;20037;-74
2024/03/11 18:02:58;;;;;;;0.10;0.10;;;12.30;73.90;;;;;;4845683;29;20033;-79
2024/03/11 18:05:26;;;;;;;0.10;0.10;;;12.20;73.70;;;;;;4860129;29;20033;-74
2024/03/11 18:07:53;;;;;;;0.10;0.10;;;12.20;74.00;;;;;;4860106;29;20109;-75
2024/03/11 18:10:21;;;;;;;0.10;0.10;;;12.10;74.30;;;;;;4862417;29;20093;-75
2024/03/11 18:12:49;;;;;;;0.10;0.10;;;12.00;74.20;;;;;;4860441;29;20040;-75
2024/03/11 18:15:18;;;;;;;0.10;0.10;;;12.00;74.50;;;;;;4859560;29;20109;-75
2024/03/11 18:17:48;;;;;;;0.10;0.10;;;12.00;74.60;;;;;;4861187;29;20033;-79
2024/03/11 18:20:13;;;;;;;0.10;0.10;;;12.00;74.40;;;;;;4852606;29;20029;-75
2024/03/11 18:22:43;;;;;;;0.00;0.00;;;12.00;74.90;;;;;;4844189;29;20086;-74
2024/03/11 18:25:17;;;;;;;0.10;0.10;;;12.00;74.80;;;;;;4844656;29;20026;-77
2024/03/11 18:27:56;;;;;;;0.03;0.03;;;12.00;74.90;;;;;;4844987;29;20108;-78